createdAt,value
2017-12-01T00:04:47.454Z,18.6
2017-12-01T00:09:47.392Z,18.44
2017-12-01T00:14:47.343Z,18.41
2017-12-01T00:19:47.274Z,18.47
2017-12-01T00:24:46.948Z,18.42
2017-12-01T00:29:47.139Z,18.44
2017-12-01T00:34:47.069Z,18.38
2017-12-01T00:39:46.746Z,18.23
2017-12-01T00:44:46.930Z,18.34
2017-12-01T00:49:46.874Z,18.23
2017-12-01T00:54:46.812Z,18.26
2017-12-01T00:59:46.742Z,18.23
2017-12-01T01:04:46.694Z,18.11
2017-12-01T01:09:46.612Z,18.17
2017-12-01T01:14:46.550Z,18.14
2017-12-01T01:19:46.595Z,18.03
2017-12-01T01:24:46.415Z,18.05
2017-12-01T01:29:46.357Z,17.96
2017-12-01T01:34:46.287Z,17.95
2017-12-01T01:39:46.240Z,17.98
2017-12-01T01:44:46.162Z,17.86
2017-12-01T01:49:46.130Z,17.88
2017-12-01T01:54:46.127Z,17.77
2017-12-01T01:59:45.953Z,17.84
2017-12-01T02:04:45.918Z,17.8
2017-12-01T02:09:45.839Z,17.77
2017-12-01T02:14:45.767Z,17.66
2017-12-01T02:19:45.788Z,17.65
2017-12-01T02:24:45.633Z,17.65
2017-12-01T02:29:45.561Z,17.66
2017-12-01T02:34:45.500Z,17.63
2017-12-01T02:39:45.449Z,17.62
2017-12-01T02:44:45.361Z,17.52
2017-12-01T02:49:45.283Z,17.49
2017-12-01T02:54:45.229Z,17.57
2017-12-01T02:59:45.168Z,17.5
2017-12-01T03:04:45.089Z,17.43
2017-12-01T03:09:45.024Z,17.46
2017-12-01T03:14:44.696Z,17.43
2017-12-01T03:19:44.894Z,17.42
2017-12-01T03:24:44.823Z,17.42
2017-12-01T03:29:44.554Z,17.32
2017-12-01T03:34:44.707Z,17.32
2017-12-01T03:39:44.641Z,17.32
2017-12-01T03:44:44.564Z,17.35
2017-12-01T03:49:44.479Z,17.38
2017-12-01T03:54:44.416Z,17.42
2017-12-01T03:59:44.448Z,17.4
2017-12-01T04:04:44.283Z,17.5
2017-12-01T04:09:43.966Z,17.49
2017-12-01T04:14:44.272Z,17.68
2017-12-01T04:19:43.836Z,17.58
2017-12-01T04:24:44.028Z,17.42
2017-12-01T04:29:43.971Z,17.57
2017-12-01T04:34:43.892Z,17.55
2017-12-01T04:39:43.845Z,17.5
2017-12-01T04:44:43.883Z,17.5
2017-12-01T04:49:43.682Z,17.42
2017-12-01T04:54:43.638Z,17.42
2017-12-01T04:59:43.315Z,17.38
2017-12-01T05:04:43.545Z,17.46
2017-12-01T05:09:43.408Z,17.54
2017-12-01T05:14:43.377Z,17.58
2017-12-01T05:19:43.307Z,17.52
2017-12-01T05:24:43.216Z,17.63
2017-12-01T05:29:43.146Z,17.65
2017-12-01T05:34:43.083Z,17.5
2017-12-01T05:39:42.762Z,17.47
2017-12-01T05:44:42.944Z,17.63
2017-12-01T05:49:42.877Z,17.47
2017-12-01T05:54:42.833Z,17.54
2017-12-01T05:59:42.772Z,17.46
2017-12-01T06:04:42.173Z,17.54
2017-12-01T06:09:42.371Z,17.55
2017-12-01T06:14:42.559Z,17.62
2017-12-01T06:19:42.547Z,17.76
2017-12-01T06:24:42.445Z,17.95
2017-12-01T06:29:42.395Z,18.17
2017-12-01T06:34:42.312Z,18.29
2017-12-01T06:39:42.033Z,18.44
2017-12-01T06:44:42.182Z,18.68
2017-12-01T06:49:42.136Z,18.72
2017-12-01T06:54:42.145Z,18.9
2017-12-01T06:59:41.486Z,18.84
2017-12-01T07:04:41.961Z,18.78
2017-12-01T07:09:41.866Z,18.75
2017-12-01T07:14:41.839Z,18.72
2017-12-01T07:19:41.485Z,18.78
2017-12-01T07:24:41.693Z,18.71
2017-12-01T07:29:41.631Z,18.79
2017-12-01T07:34:41.613Z,18.9
2017-12-01T07:39:41.512Z,19.19
2017-12-01T07:44:41.448Z,19.19
2017-12-01T07:49:41.386Z,19.24
2017-12-01T07:54:41.316Z,19.2
2017-12-01T07:59:41.272Z,19.28
2017-12-01T08:04:41.210Z,19.15
2017-12-01T08:09:41.146Z,18.97
2017-12-01T08:14:41.088Z,18.93
2017-12-01T08:19:41.046Z,18.86
2017-12-01T08:24:40.695Z,18.81
2017-12-01T08:29:40.881Z,18.78
2017-12-01T08:34:40.818Z,18.86
2017-12-01T08:39:40.503Z,18.89
2017-12-01T08:44:40.440Z,18.91
2017-12-01T08:49:40.692Z,18.97
2017-12-01T08:54:40.608Z,18.93
2017-12-01T08:59:40.354Z,18.86
2017-12-01T09:04:40.447Z,18.84
2017-12-01T09:09:40.384Z,18.87
2017-12-01T09:14:40.330Z,18.87
2017-12-01T09:19:40.262Z,18.9
2017-12-01T09:24:40.253Z,18.99
2017-12-01T09:29:40.124Z,19.15
2017-12-01T09:34:40.062Z,19.3
2017-12-01T09:39:40.022Z,19.27
2017-12-01T09:44:39.960Z,19.23
2017-12-01T09:49:39.896Z,19.35
2017-12-01T09:54:39.894Z,19.28
2017-12-01T09:59:39.762Z,19.35
2017-12-01T10:04:39.719Z,19.38
2017-12-01T10:09:39.687Z,19.35
2017-12-01T10:14:39.607Z,19.38
2017-12-01T10:19:39.533Z,19.38
2017-12-01T10:24:39.474Z,19.37
2017-12-01T10:29:39.400Z,19.31
2017-12-01T10:34:39.337Z,19.34
2017-12-01T10:39:39.377Z,19.38
2017-12-01T10:44:39.212Z,19.49
2017-12-01T10:49:39.184Z,20.1
2017-12-01T10:54:38.837Z,19.75
2017-12-01T10:59:39.050Z,19.85
2017-12-01T11:04:38.997Z,19.86
2017-12-01T11:09:38.929Z,19.87
2017-12-01T11:14:38.873Z,19.83
2017-12-01T11:19:38.854Z,19.79
2017-12-01T11:24:38.851Z,19.82
2017-12-01T11:29:38.728Z,19.64
2017-12-01T11:34:38.676Z,19.75
2017-12-01T11:39:38.326Z,19.7
2017-12-01T11:44:38.614Z,19.7
2017-12-01T11:49:38.485Z,19.71
2017-12-01T11:54:38.444Z,19.68
2017-12-01T11:59:38.455Z,19.65
2017-12-01T12:04:38.296Z,19.63
2017-12-01T12:09:38.271Z,19.67
2017-12-01T12:14:38.187Z,19.68
2017-12-01T12:19:38.131Z,19.65
2017-12-01T12:24:38.127Z,19.56
2017-12-01T12:29:38.018Z,19.67
2017-12-01T12:34:37.976Z,19.56
2017-12-01T12:39:37.902Z,19.71
2017-12-01T12:44:37.584Z,19.65
2017-12-01T12:49:37.802Z,19.68
2017-12-01T12:54:37.487Z,19.65
2017-12-01T12:59:37.684Z,19.64
2017-12-01T13:04:37.418Z,19.57
2017-12-01T13:09:37.566Z,19.46
2017-12-01T13:14:37.507Z,19.53
2017-12-01T13:19:37.516Z,19.52
2017-12-01T13:24:37.397Z,19.49
2017-12-01T13:29:37.346Z,19.42
2017-12-01T13:34:37.292Z,19.32
2017-12-01T13:39:37.237Z,19.24
2017-12-01T13:44:37.151Z,19.3
2017-12-01T13:49:37.110Z,19.16
2017-12-01T13:54:37.052Z,19
2017-12-01T13:59:36.757Z,18.99
2017-12-01T14:04:36.926Z,18.89
2017-12-01T14:09:36.859Z,18.89
2017-12-01T14:14:36.790Z,18.9
2017-12-01T14:19:36.743Z,18.86
2017-12-01T14:24:36.708Z,18.87
2017-12-01T14:29:36.767Z,18.86
2017-12-01T14:34:36.575Z,18.84
2017-12-01T14:39:36.485Z,18.78
2017-12-01T14:44:36.467Z,18.87
2017-12-01T14:49:36.373Z,18.84
2017-12-01T14:54:36.314Z,18.79
2017-12-01T14:59:35.739Z,18.86
2017-12-01T15:04:36.195Z,18.87
2017-12-01T15:09:36.133Z,19
2017-12-01T15:14:36.074Z,19
2017-12-01T15:19:36.015Z,19.02
2017-12-01T15:24:35.685Z,18.99
2017-12-01T15:29:35.903Z,19.13
2017-12-01T15:34:35.825Z,19.19
2017-12-01T15:39:35.807Z,19.24
2017-12-01T15:44:35.709Z,19.25
2017-12-01T15:49:35.809Z,19.28
2017-12-01T15:54:35.598Z,19.3
2017-12-01T15:59:35.527Z,19.23
2017-12-01T16:04:35.486Z,19.25
2017-12-01T16:09:35.512Z,19.24
2017-12-01T16:14:35.388Z,19.25
2017-12-01T16:19:35.307Z,19.19
2017-12-01T16:24:35.251Z,19.12
2017-12-01T16:29:35.190Z,19.23
2017-12-01T16:34:35.150Z,19.28
2017-12-01T16:39:35.094Z,19.43
2017-12-01T16:44:35.055Z,19.67
2017-12-01T16:49:34.706Z,19.82
2017-12-01T16:54:34.911Z,19.83
2017-12-01T16:59:34.883Z,19.68
2017-12-01T17:04:34.944Z,19.53
2017-12-01T17:09:34.750Z,19.47
2017-12-01T17:14:34.700Z,19.31
2017-12-01T17:19:34.622Z,19.53
2017-12-01T17:24:34.577Z,19.68
2017-12-01T17:29:34.574Z,19.68
2017-12-01T17:34:34.213Z,19.72
2017-12-01T17:39:34.390Z,19.75
2017-12-01T17:44:34.338Z,19.55
2017-12-01T17:49:34.298Z,19.49
2017-12-01T17:54:34.278Z,19.43
2017-12-01T17:59:34.190Z,19.56
2017-12-01T18:04:34.111Z,19.78
2017-12-01T18:09:34.078Z,19.78
2017-12-01T18:14:34.013Z,19.74
2017-12-01T18:19:33.966Z,19.8
2017-12-01T18:35:26.757Z,20.49
2017-12-01T18:40:26.609Z,23.5
2017-12-01T18:45:26.545Z,20.68
2017-12-01T18:50:26.500Z,20.38
2017-12-01T18:55:26.429Z,20.32
2017-12-01T19:00:26.353Z,20.26
2017-12-01T19:05:26.329Z,20.27
2017-12-01T19:10:26.311Z,20.07
2017-12-01T19:15:26.004Z,20.05
2017-12-01T19:20:26.093Z,19.97
2017-12-01T19:25:26.079Z,19.83
2017-12-01T19:30:25.971Z,19.82
2017-12-01T19:35:25.901Z,19.8
2017-12-01T19:40:25.834Z,19.87
2017-12-01T19:45:25.557Z,19.97
2017-12-01T19:50:25.809Z,19.98
2017-12-01T19:55:25.684Z,20.01
2017-12-01T20:00:25.399Z,19.97
2017-12-01T20:05:25.570Z,20.01
2017-12-01T20:10:25.459Z,19.93
2017-12-01T20:15:25.441Z,19.85
2017-12-01T20:20:25.338Z,19.85
2017-12-01T20:25:25.137Z,19.86
2017-12-01T20:30:25.204Z,19.82
2017-12-01T20:35:25.147Z,19.85
2017-12-01T20:40:25.077Z,19.95
2017-12-01T20:45:25.019Z,19.86
2017-12-01T20:50:24.985Z,19.8
2017-12-01T20:55:24.903Z,19.85
2017-12-01T21:00:24.574Z,19.75
2017-12-01T21:05:24.532Z,19.75
2017-12-01T21:10:24.702Z,19.78
2017-12-01T21:15:24.623Z,19.71
2017-12-01T21:20:24.568Z,19.87
2017-12-01T21:25:24.514Z,19.85
2017-12-01T21:30:24.454Z,19.95
2017-12-01T21:35:24.399Z,20.2
2017-12-01T21:40:24.046Z,20.27
2017-12-01T21:45:24.268Z,20.2
2017-12-01T21:50:23.937Z,20.29
2017-12-01T21:55:24.165Z,20.23
2017-12-01T22:00:24.098Z,20.26
2017-12-01T22:05:24.023Z,20.19
2017-12-01T22:10:23.999Z,20.1
2017-12-01T22:15:23.883Z,20.19
2017-12-01T22:20:23.813Z,20.16
2017-12-01T22:25:23.746Z,20.08
2017-12-01T22:30:23.730Z,19.97
2017-12-01T22:35:23.597Z,19.9
2017-12-01T22:40:23.579Z,19.89
2017-12-01T22:45:23.495Z,19.82
2017-12-01T22:50:23.423Z,19.82
2017-12-01T22:55:23.366Z,19.74
2017-12-01T23:00:23.081Z,19.67
2017-12-01T23:05:23.225Z,19.68
2017-12-01T23:10:23.201Z,19.47
2017-12-01T23:15:23.116Z,19.45
2017-12-01T23:20:23.018Z,19.27
2017-12-01T23:25:22.941Z,19.31
2017-12-01T23:30:22.889Z,19.2
2017-12-01T23:35:22.578Z,19.17
2017-12-01T23:40:22.749Z,19.06
2017-12-01T23:45:22.725Z,18.99
2017-12-01T23:50:22.353Z,18.9
2017-12-01T23:55:22.539Z,18.86
